createdAt,value
2019-03-10T00:00:13.335Z,5.23
2019-03-10T00:02:58.924Z,5.97
2019-03-10T00:05:49.249Z,5.13
2019-03-10T00:08:31.958Z,5.40
2019-03-10T00:11:13.827Z,5.07
2019-03-10T00:13:54.197Z,5.70
2019-03-10T00:16:33.987Z,5.33
2019-03-10T00:19:16.069Z,5.07
2019-03-10T00:22:11.822Z,4.73
2019-03-10T00:24:59.769Z,4.57
2019-03-10T00:27:29.727Z,5.50
2019-03-10T00:29:59.628Z,5.10
2019-03-10T00:32:29.543Z,4.63
2019-03-10T00:35:00.352Z,5.10
2019-03-10T00:37:30.254Z,5.03
2019-03-10T00:40:46.637Z,4.50
2019-03-10T00:44:07.033Z,4.40
2019-03-10T00:47:36.188Z,4.27
2019-03-10T00:50:34.466Z,4.50
2019-03-10T00:53:05.948Z,4.83
2019-03-10T00:55:35.887Z,5.40
2019-03-10T00:58:05.814Z,5.10
2019-03-10T01:00:35.777Z,4.90
2019-03-10T01:03:06.093Z,4.53
2019-03-10T01:05:35.933Z,4.60
2019-03-10T01:08:05.886Z,4.83
2019-03-10T01:10:37.446Z,5.30
2019-03-10T01:13:07.365Z,4.30
2019-03-10T01:15:39.296Z,4.77
2019-03-10T01:18:10.856Z,4.67
2019-03-10T01:20:42.404Z,4.27
2019-03-10T01:23:12.222Z,5.30
2019-03-10T01:25:42.131Z,4.13
2019-03-10T01:28:12.113Z,5.50
2019-03-10T01:30:49.255Z,4.90
2019-03-10T01:34:15.078Z,4.60
2019-03-10T01:36:44.895Z,5.33
2019-03-10T01:39:14.796Z,4.70
2019-03-10T01:41:44.623Z,4.47
2019-03-10T01:44:14.571Z,5.53
2019-03-10T01:46:44.450Z,5.40
2019-03-10T01:49:14.352Z,5.17
2019-03-10T01:51:44.248Z,5.80
2019-03-10T01:54:14.324Z,5.83
2019-03-10T01:56:44.209Z,5.13
2019-03-10T01:59:14.142Z,5.13
2019-03-10T02:01:44.046Z,5.10
2019-03-10T02:04:13.957Z,4.97
2019-03-10T02:06:43.873Z,5.40
2019-03-10T02:09:13.865Z,4.70
2019-03-10T02:11:43.907Z,5.10
2019-03-10T02:14:13.986Z,4.70
2019-03-10T02:16:43.984Z,4.43
2019-03-10T02:19:13.886Z,4.70
2019-03-10T02:21:43.815Z,4.17
2019-03-10T02:24:23.415Z,4.27
2019-03-10T02:26:46.433Z,4.73
2019-03-10T02:29:16.343Z,4.77
2019-03-10T02:31:46.262Z,5.70
2019-03-10T02:34:16.170Z,5.40
2019-03-10T02:36:46.063Z,4.97
2019-03-10T02:39:16.110Z,4.90
2019-03-10T02:41:46.063Z,3.87
2019-03-10T02:44:15.984Z,4.73
2019-03-10T02:46:45.892Z,4.37
2019-03-10T02:49:15.829Z,4.83
2019-03-10T02:51:47.395Z,4.60
2019-03-10T02:54:17.219Z,4.50
2019-03-10T02:56:47.195Z,4.80
2019-03-10T02:59:17.164Z,4.57
2019-03-10T03:01:47.044Z,4.97
2019-03-10T03:04:16.992Z,4.00
2019-03-10T03:06:46.938Z,4.90
2019-03-10T03:09:16.892Z,4.93
2019-03-10T03:11:46.852Z,4.90
2019-03-10T03:14:16.659Z,4.10
2019-03-10T03:16:46.557Z,4.90
2019-03-10T03:19:18.361Z,4.87
2019-03-10T03:21:48.284Z,5.23
2019-03-10T03:24:18.107Z,4.27
2019-03-10T03:26:48.021Z,4.53
2019-03-10T03:29:17.932Z,4.83
2019-03-10T03:31:47.972Z,4.97
2019-03-10T03:34:17.930Z,4.40
2019-03-10T03:36:47.791Z,4.57
2019-03-10T03:39:44.691Z,4.83
2019-03-10T03:42:14.610Z,4.77
2019-03-10T03:44:44.563Z,4.53
2019-03-10T03:47:14.490Z,4.40
2019-03-10T03:49:44.378Z,4.83
2019-03-10T03:52:14.410Z,5.80
2019-03-10T03:54:44.250Z,4.87
2019-03-10T03:57:14.279Z,5.77
2019-03-10T03:59:44.339Z,5.40
2019-03-10T04:02:38.003Z,5.33
2019-03-10T04:05:09.016Z,5.23
2019-03-10T04:07:38.962Z,5.53
2019-03-10T04:10:08.803Z,5.13
2019-03-10T04:12:38.650Z,5.20
2019-03-10T04:15:08.756Z,5.53
2019-03-10T04:17:38.699Z,4.63
2019-03-10T04:20:08.523Z,5.33
2019-03-10T04:22:38.387Z,5.50
2019-03-10T04:25:08.270Z,5.30
2019-03-10T04:27:38.073Z,5.17
2019-03-10T04:30:08.636Z,5.27
2019-03-10T04:32:38.463Z,5.00
2019-03-10T04:35:08.433Z,4.80
2019-03-10T04:37:38.397Z,5.30
2019-03-10T04:40:08.342Z,5.03
2019-03-10T04:42:38.242Z,5.00
2019-03-10T04:45:08.262Z,4.83
2019-03-10T04:47:38.218Z,5.67
2019-03-10T04:50:08.339Z,5.90
2019-03-10T04:52:40.004Z,4.97
2019-03-10T04:55:22.258Z,5.37
2019-03-10T04:58:01.149Z,5.10
2019-03-10T05:00:32.240Z,5.27
2019-03-10T05:03:02.304Z,5.87
2019-03-10T05:05:32.171Z,5.23
2019-03-10T05:08:02.053Z,6.27
2019-03-10T05:10:32.073Z,5.77
2019-03-10T05:13:04.605Z,5.57
2019-03-10T05:15:34.469Z,5.40
2019-03-10T05:18:04.526Z,5.43
2019-03-10T05:20:34.504Z,5.93
2019-03-10T05:23:27.155Z,5.40
2019-03-10T05:25:57.384Z,5.43
2019-03-10T05:28:27.475Z,6.07
2019-03-10T05:30:57.464Z,6.60
2019-03-10T05:33:27.342Z,6.20
2019-03-10T05:35:57.291Z,6.83
2019-03-10T05:38:27.306Z,6.43
2019-03-10T05:40:57.243Z,6.57
2019-03-10T05:43:28.146Z,6.60
2019-03-10T05:45:58.135Z,6.00
2019-03-10T05:48:28.037Z,5.77
2019-03-10T05:50:58.066Z,6.23
2019-03-10T05:53:27.922Z,7.10
2019-03-10T05:55:58.053Z,6.83
2019-03-10T05:58:27.957Z,7.27
2019-03-10T06:00:57.853Z,6.63
2019-03-10T06:03:27.681Z,6.83
2019-03-10T06:05:57.548Z,6.37
2019-03-10T06:08:27.377Z,5.97
2019-03-10T06:10:57.438Z,5.93
2019-03-10T06:13:27.358Z,6.00
2019-03-10T06:15:57.324Z,5.00
2019-03-10T06:18:27.343Z,4.70
2019-03-10T06:20:57.164Z,4.67
2019-03-10T06:23:27.047Z,4.40
2019-03-10T06:25:56.883Z,4.03
2019-03-10T06:28:26.773Z,4.13
2019-03-10T06:30:56.648Z,4.13
2019-03-10T06:33:26.560Z,3.50
2019-03-10T06:35:56.389Z,3.53
2019-03-10T06:38:26.254Z,3.17
2019-03-10T06:40:56.151Z,3.30
2019-03-10T06:43:26.178Z,3.07
2019-03-10T06:45:56.075Z,3.00
2019-03-10T06:48:26.000Z,3.30
2019-03-10T06:50:55.804Z,3.10
2019-03-10T06:53:25.634Z,3.33
2019-03-10T06:55:55.472Z,3.43
2019-03-10T06:58:25.274Z,3.40
2019-03-10T07:00:55.148Z,3.13
2019-03-10T07:03:25.009Z,3.50
2019-03-10T07:05:54.905Z,3.43
2019-03-10T07:08:24.756Z,4.07
2019-03-10T07:10:55.692Z,3.83
2019-03-10T07:13:25.758Z,4.10
2019-03-10T07:15:55.628Z,4.47
2019-03-10T07:18:25.687Z,4.30
2019-03-10T07:20:57.599Z,4.00
2019-03-10T07:23:27.337Z,4.40
2019-03-10T07:26:07.145Z,3.90
2019-03-10T07:28:52.136Z,4.37
2019-03-10T07:31:43.750Z,4.20
2019-03-10T07:34:31.288Z,3.77
2019-03-10T07:37:16.225Z,4.07
2019-03-10T07:39:55.825Z,4.03
2019-03-10T07:42:37.068Z,4.23
2019-03-10T07:45:36.734Z,4.40
2019-03-10T07:48:26.295Z,4.60
2019-03-10T07:51:14.003Z,4.80
2019-03-10T07:53:56.433Z,4.90
2019-03-10T07:56:51.478Z,5.33
2019-03-10T07:59:38.151Z,4.70
2019-03-10T08:02:27.058Z,4.27
2019-03-10T08:05:18.788Z,4.93
2019-03-10T08:07:57.587Z,4.63
2019-03-10T08:10:36.930Z,4.40
2019-03-10T08:13:31.861Z,4.80
2019-03-10T08:16:19.712Z,4.23
2019-03-10T08:19:11.465Z,4.80
2019-03-10T08:22:03.061Z,4.37
2019-03-10T08:24:42.172Z,3.83
2019-03-10T08:27:23.742Z,3.63
2019-03-10T08:30:12.610Z,3.53
2019-03-10T08:32:53.651Z,3.50
2019-03-10T08:35:41.478Z,2.97
2019-03-10T08:38:31.286Z,3.33
2019-03-10T08:41:09.558Z,3.63
2019-03-10T08:43:56.745Z,2.87
2019-03-10T08:46:33.230Z,3.00
2019-03-10T08:49:27.065Z,2.63
2019-03-10T08:52:05.408Z,2.57
2019-03-10T08:54:47.784Z,2.37
2019-03-10T08:57:48.675Z,2.13
2019-03-10T09:00:49.523Z,2.30
2019-03-10T09:03:26.815Z,2.10
2019-03-10T09:06:18.471Z,2.30
2019-03-10T09:09:19.485Z,2.10
2019-03-10T09:12:04.963Z,2.20
2019-03-10T09:14:53.822Z,2.17
2019-03-10T09:17:48.710Z,2.00
2019-03-10T09:20:36.494Z,2.10
2019-03-10T09:23:40.627Z,1.70
2019-03-10T09:26:32.250Z,2.00
2019-03-10T09:29:33.514Z,1.70
2019-03-10T09:32:21.314Z,1.70
2019-03-10T09:35:05.454Z,2.00
2019-03-10T09:37:43.075Z,2.53
2019-03-10T09:40:37.809Z,1.97
2019-03-10T09:43:29.739Z,2.10
2019-03-10T09:46:18.659Z,1.90
2019-03-10T09:49:02.848Z,1.80
2019-03-10T09:51:39.767Z,1.67
2019-03-10T09:54:40.790Z,2.00
2019-03-10T09:57:48.115Z,2.20
2019-03-10T10:00:46.406Z,2.37
2019-03-10T10:03:33.646Z,2.10
2019-03-10T10:06:11.587Z,1.87
2019-03-10T10:08:59.221Z,1.80
2019-03-10T10:11:36.419Z,1.70
2019-03-10T10:14:15.095Z,1.70
2019-03-10T10:17:02.994Z,1.30
2019-03-10T10:20:10.553Z,1.17
2019-03-10T10:22:51.610Z,1.30
2019-03-10T10:25:29.475Z,1.33
2019-03-10T10:28:24.591Z,1.27
2019-03-10T10:31:19.578Z,1.00
2019-03-10T10:34:10.488Z,0.83
2019-03-10T10:36:47.968Z,0.80
2019-03-10T10:39:42.927Z,0.80
2019-03-10T10:42:19.655Z,0.90
2019-03-10T10:45:26.848Z,0.80
2019-03-10T10:48:08.856Z,0.80
2019-03-10T10:50:49.303Z,0.70
2019-03-10T10:53:26.335Z,0.70
2019-03-10T10:56:08.479Z,0.70
2019-03-10T10:59:03.395Z,1.10
2019-03-10T11:01:43.509Z,1.10
2019-03-10T11:04:31.316Z,1.03
2019-03-10T11:07:22.986Z,0.90
2019-03-10T11:10:17.409Z,1.00
2019-03-10T11:13:07.924Z,1.03
2019-03-10T11:16:03.711Z,1.10
2019-03-10T11:18:55.541Z,0.93
2019-03-10T11:21:47.479Z,1.10
2019-03-10T11:24:42.450Z,0.90
2019-03-10T11:27:35.484Z,1.00
2019-03-10T11:30:16.672Z,1.00
2019-03-10T11:33:05.537Z,1.10
2019-03-10T11:35:54.671Z,1.17
2019-03-10T11:38:46.718Z,0.93
2019-03-10T11:41:33.994Z,0.93
2019-03-10T11:44:30.239Z,1.30
2019-03-10T11:47:19.218Z,1.00
2019-03-10T11:50:20.227Z,1.30
2019-03-10T11:53:01.340Z,1.20
2019-03-10T11:55:49.554Z,1.20
2019-03-10T11:58:47.533Z,1.27
2019-03-10T12:01:26.510Z,1.10
2019-03-10T12:04:13.852Z,1.30
2019-03-10T12:06:55.423Z,1.40
2019-03-10T12:09:25.375Z,1.50
2019-03-10T12:11:55.300Z,1.40
2019-03-10T12:14:25.206Z,1.40
2019-03-10T12:16:55.190Z,1.60
2019-03-10T12:19:25.266Z,1.50
2019-03-10T12:21:56.193Z,1.65
2019-03-10T12:24:26.310Z,1.67
2019-03-10T12:26:56.217Z,1.52
2019-03-10T12:29:26.258Z,1.95
2019-03-10T12:31:56.193Z,1.70
2019-03-10T12:34:26.152Z,2.17
2019-03-10T12:36:56.053Z,1.87
2019-03-10T12:39:25.917Z,1.70
2019-03-10T12:41:58.701Z,1.80
2019-03-10T12:44:27.487Z,1.77
2019-03-10T12:46:57.416Z,1.80
2019-03-10T12:49:27.371Z,1.60
2019-03-10T12:51:57.196Z,1.60
2019-03-10T12:54:27.044Z,2.15
2019-03-10T12:56:57.008Z,1.70
2019-03-10T12:59:26.915Z,1.77
2019-03-10T13:01:56.799Z,1.55
2019-03-10T13:04:26.638Z,1.85
2019-03-10T13:06:57.636Z,1.60
2019-03-10T13:09:27.644Z,1.80
2019-03-10T13:12:02.491Z,1.70
2019-03-10T13:14:37.108Z,1.60
2019-03-10T13:18:28.003Z,1.90
2019-03-10T13:19:51.664Z,1.75
2019-03-10T13:22:27.765Z,1.70
2019-03-10T13:24:57.966Z,1.67
2019-03-10T13:27:33.503Z,2.10
2019-03-10T13:30:53.387Z,1.80
2019-03-10T13:33:45.747Z,2.20
2019-03-10T13:36:20.047Z,2.05
2019-03-10T13:39:02.380Z,2.08
2019-03-10T13:41:42.112Z,2.10
2019-03-10T13:45:05.983Z,2.60
2019-03-10T13:47:55.041Z,2.27
2019-03-10T13:50:09.409Z,2.67
2019-03-10T13:53:05.079Z,2.70
2019-03-10T13:55:38.300Z,2.80
2019-03-10T13:58:06.742Z,2.40
2019-03-10T14:00:33.900Z,2.70
2019-03-10T14:03:44.097Z,3.00
2019-03-10T14:09:57.497Z,3.25
2019-03-10T14:16:57.003Z,2.85
2019-03-10T14:23:49.276Z,2.98
2019-03-10T14:26:32.263Z,2.70
2019-03-10T14:30:02.217Z,2.77
2019-03-10T14:32:45.112Z,2.80
2019-03-10T14:35:09.590Z,2.77
2019-03-10T14:38:52.087Z,2.62
2019-03-10T14:41:36.939Z,2.67
2019-03-10T14:44:03.353Z,2.72
2019-03-10T14:46:33.490Z,2.70
2019-03-10T14:49:10.444Z,2.90
2019-03-10T14:52:00.314Z,2.70
2019-03-10T14:54:57.824Z,2.53
2019-03-10T14:57:43.150Z,2.47
2019-03-10T15:00:20.583Z,2.70
2019-03-10T15:02:55.546Z,2.45
2019-03-10T15:05:32.535Z,2.70
2019-03-10T15:08:07.572Z,2.40
2019-03-10T15:10:39.136Z,2.37
2019-03-10T15:13:11.276Z,2.60
2019-03-10T15:15:41.165Z,2.27
2019-03-10T15:18:11.194Z,2.20
2019-03-10T15:20:41.249Z,2.47
2019-03-10T15:23:11.414Z,2.00
2019-03-10T15:25:41.389Z,2.55
2019-03-10T15:28:11.482Z,2.15
2019-03-10T15:30:41.584Z,2.20
2019-03-10T15:33:11.498Z,2.00
2019-03-10T15:35:41.510Z,2.47
2019-03-10T15:38:11.449Z,1.90
2019-03-10T15:40:41.484Z,1.70
2019-03-10T15:43:11.492Z,1.90
2019-03-10T15:48:10.496Z,1.90
2019-03-10T15:50:40.481Z,2.30
2019-03-10T15:53:10.516Z,2.40
2019-03-10T15:55:40.528Z,2.12
2019-03-10T15:58:10.561Z,1.95
2019-03-10T16:00:40.563Z,1.90
2019-03-10T16:03:10.635Z,2.08
2019-03-10T16:05:42.281Z,2.05
2019-03-10T16:08:12.296Z,1.90
2019-03-10T16:10:44.771Z,1.85
2019-03-10T16:13:13.893Z,1.95
2019-03-10T16:15:44.011Z,1.92
2019-03-10T16:18:14.084Z,2.10
2019-03-10T16:20:44.000Z,1.85
2019-03-10T16:23:14.140Z,2.17
2019-03-10T16:25:43.933Z,2.00
2019-03-10T16:28:13.779Z,1.93
2019-03-10T16:30:43.678Z,1.80
2019-03-10T16:33:13.528Z,1.92
2019-03-10T16:35:43.462Z,2.00
2019-03-10T16:38:13.425Z,1.80
2019-03-10T16:40:43.199Z,2.08
2019-03-10T16:43:13.047Z,1.87
2019-03-10T16:45:42.942Z,1.70
2019-03-10T16:48:12.963Z,1.80
2019-03-10T16:51:12.330Z,1.75
2019-03-10T16:53:42.299Z,1.77
2019-03-10T16:56:12.430Z,1.72
2019-03-10T16:58:42.371Z,1.80
2019-03-10T17:01:12.382Z,1.80
2019-03-10T17:03:42.428Z,1.67
2019-03-10T17:06:12.318Z,1.47
2019-03-10T17:08:42.299Z,1.50
2019-03-10T17:11:12.384Z,1.70
2019-03-10T17:13:42.417Z,1.42
2019-03-10T17:16:12.342Z,1.70
2019-03-10T17:18:42.296Z,1.40
2019-03-10T17:21:12.275Z,1.50
2019-03-10T17:23:42.216Z,1.70
2019-03-10T17:26:12.121Z,1.63
2019-03-10T17:28:42.183Z,1.37
2019-03-10T17:31:12.157Z,1.70
2019-03-10T17:33:42.194Z,1.53
2019-03-10T17:36:12.053Z,1.57
2019-03-10T17:38:41.949Z,1.50
2019-03-10T17:43:40.706Z,1.73
2019-03-10T17:46:10.659Z,1.60
2019-03-10T17:48:40.634Z,1.55
2019-03-10T17:51:10.631Z,1.60
2019-03-10T17:53:41.926Z,1.53
